Glenwood Springs, CO

3:06 PM MDT on September 01, 2014 (GMT -0600)
Sunlight Mountain | Change Station
CLOSE
Current Station
Airport
Location: Sunlight Mountain,
Elevation: 10604 ft
Nearby Weather Stations

Elev 10604 ft 39.43 °N, 107.38 °W | Updated 8 minutes ago

Clear
Clear
63 °F
Feels Like 63 °F
N
0
Wind Variable Wind from North

Today
High -- | Low -- °F
--% Chance of Precip.
Yesterday
High -- | Low -- °F
Precip. -- in
6:37 AM 7:40 PM
Waxing Crescent, 44% visible
Pressure 30.41 in
Visibility 10.0 miles
Clouds Clear
Dew Point 39 °F
Humidity 42%
Rainfall 0.00 in
Snow Depth Not available.
UV 9 out of 12
Pollen 9.60 out of 12
Air Quality Not available.
Flu Activity Not available.
METAR K5SM 012058Z AUTO 00000KT 10SM CLR 17/04 A3041 RMK AO2

More Conditions Fewer Conditions

Pressure 30.41 in
Visibility 10.0 miles
Clouds Clear
Dew Point 39 °F
Humidity 42%
Rainfall 0.00 in
Snow Depth Not available.
UV 9 out of 12
Pollen 9.60 out of 12
Air Quality Not available.
Flu Activity Not available.
METAR K5SM 012058Z AUTO 00000KT 10SM CLR 17/04 A3041 RMK AO2

More Conditions Fewer Conditions

10-Day Weather Forecast

Almanac

Astronomy

Sep. 01, 2014 Rise Set
Actual Time 6:37 AM MDT 7:40 PM MDT
Civil Twilight 6:10 AM MDT 8:07 PM MDT
Nautical Twilight 5:37 AM MDT 8:40 PM MDT
Astronomical Twilight 5:03 AM MDT 9:14 PM MDT
Moon 1:24 PM MDT 11:46 PM MDT
Length of Visible Light 13h 57m
Length of Day
13h 02m
Tomorrow will be 2m 29s shorter.
Waxing Crescent, 44% of the Moon is Illuminated
Today
Waxing Crescent
Sep 2
First Quarter
Sep 8
Full
Sep 15
Last Quarter
Sep 24
New

Today's Extremes

State Highs State Lows

Community

WunderPhotos

Upload Photos

1,749,407 photos uploaded!

WunderBlogs® & News

Nearby

Snow Depth

Station Depth Elevation
McClure Pass 1 in 9500 ft
Ivanhoe 0 in 10400 ft
Mccoy Park 23 in 9480 ft
Independence Pass 187 in 10600 ft
Brumley 0 in 10600 ft

Earthquake Activity

City Distance Mag. Time & Date
No recent earthquake activity has been reported nearby.
Minimum magnitude displayed is 2.5.

Coastal Water Temperatures

Place Temperature
No Stations Reporting

Nearby Weather Stations